createdAt,value
2019-05-16T00:00:40.133Z,3.37
2019-05-16T00:03:28.015Z,3.67
2019-05-16T00:06:17.950Z,3.63
2019-05-16T00:09:08.007Z,2.80
2019-05-16T00:11:58.087Z,3.47
2019-05-16T00:14:48.893Z,3.33
2019-05-16T00:17:38.648Z,6.33
2019-05-16T00:20:28.336Z,4.90
2019-05-16T00:23:18.261Z,2.83
2019-05-16T00:26:07.855Z,3.07
2019-05-16T00:28:58.780Z,3.47
2019-05-16T00:31:48.517Z,3.30
2019-05-16T00:34:38.348Z,4.00
2019-05-16T00:37:28.516Z,2.70
2019-05-16T00:40:18.567Z,3.20
2019-05-16T00:43:08.088Z,6.57
2019-05-16T00:45:58.713Z,2.80
2019-05-16T00:48:48.570Z,3.50
2019-05-16T00:51:37.657Z,10.30
2019-05-16T00:54:27.715Z,4.53
2019-05-16T00:57:18.628Z,3.80
2019-05-16T01:00:08.574Z,2.90
2019-05-16T01:02:57.859Z,3.03
2019-05-16T01:05:48.096Z,3.50
2019-05-16T01:08:38.519Z,3.00
2019-05-16T01:11:27.813Z,2.90
2019-05-16T01:14:17.695Z,3.63
2019-05-16T01:17:05.970Z,2.83
2019-05-16T01:19:55.012Z,4.60
2019-05-16T01:22:43.262Z,3.17
2019-05-16T01:25:31.400Z,3.00
2019-05-16T01:28:20.403Z,3.10
2019-05-16T01:31:08.704Z,3.77
2019-05-16T01:33:58.339Z,4.30
2019-05-16T01:36:48.441Z,2.60
2019-05-16T01:39:38.017Z,2.10
2019-05-16T01:42:24.999Z,3.13
2019-05-16T01:45:13.226Z,6.20
2019-05-16T01:48:01.497Z,2.37
2019-05-16T01:50:49.483Z,4.70
2019-05-16T01:53:39.310Z,2.83
2019-05-16T01:56:28.065Z,2.97
2019-05-16T01:59:17.771Z,2.90
2019-05-16T02:02:05.024Z,6.50
2019-05-16T02:04:52.634Z,2.10
2019-05-16T02:07:41.236Z,3.27
2019-05-16T02:10:29.252Z,2.77
2019-05-16T02:13:18.149Z,9.23
2019-05-16T02:16:08.234Z,1.90
2019-05-16T02:18:58.730Z,3.97
2019-05-16T02:21:47.629Z,2.27
2019-05-16T02:24:35.588Z,2.10
2019-05-16T02:27:24.202Z,3.50
2019-05-16T02:30:12.756Z,2.63
2019-05-16T02:33:01.309Z,3.10
2019-05-16T02:35:54.715Z,2.60
2019-05-16T02:38:42.301Z,2.17
2019-05-16T02:41:31.149Z,2.50
2019-05-16T02:44:20.899Z,2.53
2019-05-16T02:47:10.867Z,3.17
2019-05-16T02:50:01.145Z,2.23
2019-05-16T02:52:51.765Z,3.23
2019-05-16T02:55:41.051Z,3.57
2019-05-16T02:58:30.658Z,2.53
2019-05-16T03:01:21.702Z,4.07
2019-05-16T03:04:11.025Z,3.20
2019-05-16T03:07:00.646Z,3.03
2019-05-16T03:09:51.409Z,2.60
2019-05-16T03:12:41.112Z,4.70
2019-05-16T03:15:30.920Z,3.73
2019-05-16T03:18:21.455Z,2.43
2019-05-16T03:21:11.329Z,1.93
2019-05-16T03:24:00.849Z,6.53
2019-05-16T03:26:51.411Z,2.57
2019-05-16T03:29:41.738Z,2.30
2019-05-16T03:32:34.227Z,2.13
2019-05-16T03:35:23.835Z,7.83
2019-05-16T03:38:11.788Z,2.50
2019-05-16T03:41:01.007Z,3.17
2019-05-16T03:43:50.480Z,2.70
2019-05-16T03:46:41.059Z,2.47
2019-05-16T03:49:30.951Z,2.60
2019-05-16T03:52:20.757Z,3.60
2019-05-16T03:55:11.046Z,3.10
2019-05-16T03:58:00.858Z,3.50
2019-05-16T04:00:53.534Z,2.50
2019-05-16T04:03:41.701Z,3.90
2019-05-16T04:06:31.143Z,2.37
2019-05-16T04:09:21.089Z,3.90
2019-05-16T04:12:10.801Z,2.70
2019-05-16T04:15:01.768Z,3.47
2019-05-16T04:17:51.340Z,4.93
2019-05-16T04:20:40.647Z,2.80
2019-05-16T04:23:31.315Z,3.17
2019-05-16T04:26:21.628Z,2.23
2019-05-16T04:29:11.477Z,2.53
2019-05-16T04:32:01.171Z,3.33
2019-05-16T04:34:50.930Z,2.53
2019-05-16T04:37:37.279Z,1.83
2019-05-16T04:40:25.036Z,2.33
2019-05-16T04:43:13.817Z,2.30
2019-05-16T04:46:02.150Z,1.80
2019-05-16T04:48:50.990Z,3.67
2019-05-16T04:51:41.494Z,2.63
2019-05-16T04:54:30.774Z,3.03
2019-05-16T04:57:20.895Z,3.40
2019-05-16T05:00:11.271Z,2.70
2019-05-16T05:03:01.302Z,1.87
2019-05-16T05:05:51.382Z,2.00
2019-05-16T05:08:50.607Z,2.53
2019-05-16T05:11:30.483Z,2.57
2019-05-16T05:14:17.288Z,3.33
2019-05-16T05:17:05.731Z,2.57
2019-05-16T05:19:53.335Z,3.30
2019-05-16T05:22:41.756Z,3.20
2019-05-16T05:25:30.908Z,2.47
2019-05-16T05:28:21.009Z,5.93
2019-05-16T05:31:10.639Z,6.00
2019-05-16T05:34:01.119Z,3.17
2019-05-16T05:36:51.003Z,4.37
2019-05-16T05:39:39.681Z,2.37
2019-05-16T05:42:27.544Z,2.63
2019-05-16T05:45:16.101Z,6.53
2019-05-16T05:48:04.483Z,2.80
2019-05-16T05:50:52.743Z,3.70
2019-05-16T05:53:41.224Z,4.13
2019-05-16T05:56:30.547Z,5.37
2019-05-16T05:59:20.117Z,3.27
2019-05-16T06:02:11.323Z,2.50
2019-05-16T06:04:59.741Z,3.20
2019-05-16T06:07:47.674Z,2.87
2019-05-16T06:10:36.623Z,2.50
2019-05-16T06:13:24.800Z,2.40
2019-05-16T06:16:13.087Z,2.07
2019-05-16T06:19:01.636Z,4.17
2019-05-16T06:21:50.480Z,4.83
2019-05-16T06:24:39.952Z,6.10
2019-05-16T06:27:30.319Z,2.17
2019-05-16T06:30:20.608Z,4.87
2019-05-16T06:33:10.103Z,3.20
2019-05-16T06:35:57.103Z,4.57
2019-05-16T06:38:45.182Z,4.40
2019-05-16T06:41:33.580Z,3.33
2019-05-16T06:44:21.940Z,2.67
2019-05-16T06:47:19.501Z,7.80
2019-05-16T06:50:00.282Z,5.27
2019-05-16T06:52:50.202Z,3.57
2019-05-16T06:55:40.110Z,5.00
2019-05-16T06:58:30.264Z,6.13
2019-05-16T07:01:20.840Z,4.87
2019-05-16T07:04:10.250Z,3.80
2019-05-16T07:07:00.037Z,4.73
2019-05-16T07:09:58.192Z,4.77
2019-05-16T07:12:37.114Z,2.90
2019-05-16T07:15:25.386Z,2.53
2019-05-16T07:18:13.181Z,4.13
2019-05-16T07:21:01.824Z,3.17
2019-05-16T07:23:51.087Z,2.60
2019-05-16T07:26:40.513Z,3.60
2019-05-16T07:29:30.885Z,3.80
2019-05-16T07:32:19.917Z,3.00
2019-05-16T07:35:10.493Z,3.10
2019-05-16T07:38:00.465Z,3.10
2019-05-16T07:40:47.851Z,2.87
2019-05-16T07:43:36.172Z,4.80
2019-05-16T07:46:25.204Z,3.83
2019-05-16T07:49:13.848Z,2.70
2019-05-16T07:52:02.044Z,4.07
2019-05-16T07:54:50.739Z,2.70
2019-05-16T07:57:39.858Z,5.73
2019-05-16T08:00:47.939Z,4.20
2019-05-16T08:03:19.938Z,3.57
2019-05-16T08:06:10.698Z,4.30
2019-05-16T08:08:57.198Z,5.50
2019-05-16T08:11:45.652Z,3.30
2019-05-16T08:14:35.163Z,3.43
2019-05-16T08:17:23.703Z,3.60
2019-05-16T08:20:12.310Z,4.63
2019-05-16T08:23:00.945Z,3.20
2019-05-16T08:25:50.686Z,3.20
2019-05-16T08:28:41.014Z,6.77
2019-05-16T08:31:31.570Z,3.80
2019-05-16T08:34:20.869Z,6.03
2019-05-16T08:37:30.650Z,6.40
2019-05-16T08:40:00.206Z,4.67
2019-05-16T08:42:46.934Z,6.97
2019-05-16T08:45:35.328Z,4.10
2019-05-16T08:48:23.805Z,4.90
2019-05-16T08:51:12.334Z,4.13
2019-05-16T08:54:01.697Z,4.73
2019-05-16T08:56:51.159Z,3.40
2019-05-16T08:59:41.106Z,3.60
2019-05-16T09:02:36.307Z,3.30
2019-05-16T09:05:22.312Z,3.57
2019-05-16T09:08:08.707Z,3.10
2019-05-16T09:11:02.056Z,3.60
2019-05-16T09:13:47.742Z,4.77
2019-05-16T09:16:37.254Z,4.17
2019-05-16T09:19:27.553Z,3.30
2019-05-16T09:22:17.946Z,3.60
2019-05-16T09:25:08.006Z,6.13
2019-05-16T09:27:57.084Z,6.47
2019-05-16T09:30:46.937Z,3.30
2019-05-16T09:33:34.532Z,4.23
2019-05-16T09:36:22.627Z,3.37
2019-05-16T09:39:10.450Z,4.20
2019-05-16T09:41:58.917Z,3.70
2019-05-16T09:44:47.733Z,3.63
2019-05-16T09:47:38.992Z,3.30
2019-05-16T09:50:26.883Z,6.33
2019-05-16T09:53:17.002Z,4.20
2019-05-16T09:56:07.066Z,6.30
2019-05-16T09:58:57.462Z,3.60
2019-05-16T10:01:47.728Z,3.37
2019-05-16T10:04:36.817Z,4.23
2019-05-16T10:07:28.308Z,5.10
2019-05-16T10:10:17.139Z,3.60
2019-05-16T10:13:06.801Z,5.80
2019-05-16T10:15:55.559Z,8.50
2019-05-16T10:18:43.507Z,5.00
2019-05-16T10:21:32.050Z,5.20
2019-05-16T10:24:20.574Z,5.37
2019-05-16T10:27:08.524Z,7.63
2019-05-16T10:29:57.458Z,5.80
2019-05-16T10:32:47.825Z,4.23
2019-05-16T10:35:37.344Z,6.07
2019-05-16T10:38:28.534Z,5.03
2019-05-16T10:41:14.756Z,5.70
2019-05-16T10:44:02.920Z,5.13
2019-05-16T10:46:51.503Z,7.53
2019-05-16T10:49:41.864Z,6.03
2019-05-16T10:52:29.227Z,5.23
2019-05-16T10:55:17.963Z,7.87
2019-05-16T10:58:07.352Z,5.60
2019-05-16T11:01:15.621Z,5.00
2019-05-16T11:03:48.868Z,4.20
2019-05-16T11:06:37.076Z,4.33
2019-05-16T11:09:24.575Z,7.63
2019-05-16T11:12:12.898Z,6.97
2019-05-16T11:15:01.936Z,5.47
2019-05-16T11:17:51.109Z,4.47
2019-05-16T11:20:40.066Z,5.67
2019-05-16T11:23:31.465Z,5.47
2019-05-16T11:26:18.026Z,5.17
2019-05-16T11:29:07.433Z,4.60
2019-05-16T11:31:57.389Z,6.17
2019-05-16T11:34:44.984Z,6.20
2019-05-16T11:37:32.843Z,5.20
2019-05-16T11:40:20.895Z,4.57
2019-05-16T11:43:17.433Z,6.33
2019-05-16T11:45:59.153Z,5.07
2019-05-16T11:48:48.964Z,4.80
2019-05-16T11:51:38.350Z,6.80
2019-05-16T11:54:26.674Z,4.93
2019-05-16T11:57:17.723Z,6.03
2019-05-16T12:00:07.982Z,5.73
2019-05-16T12:02:56.444Z,7.20
2019-05-16T12:05:48.195Z,8.00
2019-05-16T12:08:37.052Z,7.40
2019-05-16T12:11:27.511Z,4.87
2019-05-16T12:14:16.570Z,3.80
2019-05-16T12:17:07.439Z,8.00
2019-05-16T12:19:57.486Z,4.03
2019-05-16T12:22:44.439Z,6.03
2019-05-16T12:25:32.776Z,5.97
2019-05-16T12:28:21.059Z,6.43
2019-05-16T12:31:09.507Z,4.93
2019-05-16T12:33:59.743Z,4.77
2019-05-16T12:36:47.246Z,5.17
2019-05-16T12:39:37.931Z,5.63
2019-05-16T12:42:27.072Z,5.93
2019-05-16T12:45:14.711Z,5.07
2019-05-16T12:48:02.879Z,4.10
2019-05-16T12:50:50.906Z,5.57
2019-05-16T12:53:38.941Z,5.90
2019-05-16T12:56:27.744Z,5.57
2019-05-16T12:59:18.616Z,4.43
2019-05-16T13:02:07.241Z,4.63
2019-05-16T13:04:57.594Z,4.20
2019-05-16T13:07:47.587Z,4.93
2019-05-16T13:10:37.934Z,4.10
2019-05-16T13:13:27.841Z,3.93
2019-05-16T13:16:16.770Z,4.43
2019-05-16T13:19:07.002Z,4.57
2019-05-16T13:21:57.728Z,7.37
2019-05-16T13:24:47.870Z,7.30
2019-05-16T13:27:37.283Z,6.90
2019-05-16T13:30:26.819Z,7.90
2019-05-16T13:33:17.528Z,9.00
2019-05-16T13:36:07.421Z,4.53
2019-05-16T13:38:56.885Z,7.13
2019-05-16T13:41:43.903Z,6.07
2019-05-16T13:44:31.654Z,6.80
2019-05-16T13:47:20.132Z,5.33
2019-05-16T13:50:12.164Z,4.57
2019-05-16T13:52:59.138Z,4.47
2019-05-16T13:55:47.138Z,4.53
2019-05-16T13:58:37.283Z,4.33
2019-05-16T14:01:27.792Z,4.87
2019-05-16T14:04:17.320Z,8.53
2019-05-16T14:07:07.649Z,7.80
2019-05-16T14:09:57.864Z,4.83
2019-05-16T14:12:49.097Z,5.40
2019-05-16T14:15:36.808Z,5.43
2019-05-16T14:18:27.096Z,5.90
2019-05-16T14:21:14.226Z,5.33
2019-05-16T14:24:02.767Z,6.43
2019-05-16T14:26:51.329Z,5.53
2019-05-16T14:29:40.091Z,4.80
2019-05-16T14:32:28.268Z,5.70
2019-05-16T14:35:16.303Z,8.30
2019-05-16T14:38:04.952Z,5.40
2019-05-16T14:40:53.215Z,5.60
2019-05-16T14:43:41.078Z,5.17
2019-05-16T14:46:29.685Z,4.43
2019-05-16T14:49:18.368Z,4.80
2019-05-16T14:52:06.228Z,5.73
2019-05-16T14:54:57.373Z,4.63
2019-05-16T14:57:44.423Z,4.93
2019-05-16T15:00:32.791Z,5.80
2019-05-16T15:03:21.240Z,4.23
2019-05-16T15:06:09.276Z,5.00
2019-05-16T15:08:57.559Z,4.93
2019-05-16T15:11:45.627Z,5.90
2019-05-16T15:14:34.292Z,5.13
2019-05-16T15:17:22.011Z,4.50
2019-05-16T15:20:10.492Z,4.73
2019-05-16T15:22:58.963Z,5.50
2019-05-16T15:25:47.713Z,5.10
2019-05-16T15:28:37.800Z,8.10
2019-05-16T15:31:25.891Z,6.07
2019-05-16T15:34:14.131Z,7.43
2019-05-16T15:37:03.210Z,5.93
2019-05-16T15:39:54.203Z,6.07
2019-05-16T15:42:41.207Z,9.40
2019-05-16T15:45:43.032Z,4.83
2019-05-16T15:48:28.546Z,5.60
2019-05-16T15:51:20.829Z,5.60
2019-05-16T15:54:06.878Z,6.60
2019-05-16T15:56:55.407Z,7.20
2019-05-16T15:59:43.323Z,5.80
2019-05-16T16:02:31.040Z,5.30
2019-05-16T16:05:19.571Z,5.10
2019-05-16T16:08:07.729Z,6.53
2019-05-16T16:10:56.227Z,4.53
2019-05-16T16:13:43.961Z,4.63
2019-05-16T16:16:32.739Z,5.70
2019-05-16T16:19:20.931Z,7.27
2019-05-16T16:22:09.131Z,5.53
2019-05-16T16:24:57.640Z,7.03
2019-05-16T16:27:46.272Z,6.20
2019-05-16T16:30:37.444Z,6.33
2019-05-16T16:33:29.117Z,6.50
2019-05-16T16:36:17.157Z,7.27
2019-05-16T16:39:07.535Z,6.37
2019-05-16T16:41:56.910Z,5.70
2019-05-16T16:44:47.190Z,6.70
2019-05-16T16:47:37.666Z,7.80
2019-05-16T16:50:26.544Z,5.37
2019-05-16T16:53:17.461Z,9.00
2019-05-16T16:56:07.370Z,5.23
2019-05-16T16:58:55.479Z,7.27
2019-05-16T17:01:46.445Z,7.53
2019-05-16T17:04:33.796Z,8.10
2019-05-16T17:07:22.159Z,6.30
2019-05-16T17:10:10.588Z,6.23
2019-05-16T17:12:58.399Z,6.33
2019-05-16T17:15:47.426Z,8.17
2019-05-16T17:18:36.929Z,11.10
2019-05-16T17:21:25.368Z,7.30
2019-05-16T17:24:13.441Z,9.60
2019-05-16T17:27:01.427Z,8.60
2019-05-16T17:29:50.164Z,10.13
2019-05-16T17:32:38.439Z,7.50
2019-05-16T17:35:26.940Z,8.60
2019-05-16T17:38:17.260Z,11.00
2019-05-16T17:41:07.681Z,8.50
2019-05-16T17:43:56.414Z,10.50
2019-05-16T17:46:46.775Z,9.00
2019-05-16T17:49:37.155Z,13.20
2019-05-16T17:52:27.352Z,11.80
2019-05-16T17:55:17.144Z,12.53
2019-05-16T17:58:08.434Z,9.30
2019-05-16T18:00:57.775Z,9.10
2019-05-16T18:03:44.864Z,9.17
2019-05-16T18:06:36.943Z,12.47
2019-05-16T18:09:23.851Z,9.83
2019-05-16T18:12:12.447Z,10.50
2019-05-16T18:15:00.583Z,12.30
2019-05-16T18:17:48.815Z,9.23
2019-05-16T18:20:37.449Z,11.13
2019-05-16T18:23:27.464Z,10.60
2019-05-16T18:26:17.329Z,10.37
2019-05-16T18:29:06.831Z,10.40
2019-05-16T18:31:55.084Z,10.17
2019-05-16T18:34:43.500Z,13.53
2019-05-16T18:37:33.380Z,11.37
2019-05-16T18:40:21.895Z,11.57
2019-05-16T18:43:10.596Z,10.50
2019-05-16T18:45:58.827Z,11.33
2019-05-16T18:48:47.151Z,12.27
2019-05-16T18:51:36.969Z,12.47
2019-05-16T18:54:26.676Z,11.37
2019-05-16T18:57:17.643Z,13.70
2019-05-16T19:00:07.100Z,12.60
2019-05-16T19:02:59.368Z,12.83
2019-05-16T19:05:46.946Z,15.27
2019-05-16T19:08:36.454Z,13.50
2019-05-16T19:11:26.807Z,13.73
2019-05-16T19:14:16.726Z,14.00
2019-05-16T19:17:17.362Z,14.40
2019-05-16T19:19:54.403Z,14.87
2019-05-16T19:22:42.783Z,14.53
2019-05-16T19:25:31.318Z,14.43
2019-05-16T19:28:19.882Z,15.40
2019-05-16T19:31:07.993Z,16.10
2019-05-16T19:33:56.564Z,16.83
2019-05-16T19:36:46.983Z,17.57
2019-05-16T19:39:37.034Z,15.90
2019-05-16T19:42:26.631Z,18.30
2019-05-16T19:45:17.035Z,18.97
2019-05-16T19:48:07.306Z,18.47
2019-05-16T19:50:56.869Z,20.23
2019-05-16T19:53:47.051Z,18.80
2019-05-16T19:56:37.385Z,20.80
2019-05-16T19:59:27.098Z,17.60
2019-05-16T20:02:16.632Z,20.37
2019-05-16T20:05:04.644Z,19.60
2019-05-16T20:07:53.113Z,20.23
2019-05-16T20:10:41.659Z,19.30
2019-05-16T20:13:30.723Z,18.80
2019-05-16T20:16:18.668Z,21.60
2019-05-16T20:19:06.759Z,22.00
2019-05-16T20:21:57.873Z,20.43
2019-05-16T20:24:46.762Z,20.70
2019-05-16T20:27:36.514Z,20.77
2019-05-16T20:30:26.304Z,22.83
2019-05-16T20:33:14.000Z,22.43
2019-05-16T20:36:03.036Z,22.03
2019-05-16T20:38:51.855Z,24.80
2019-05-16T20:41:40.030Z,22.80
2019-05-16T20:44:28.113Z,22.47
2019-05-16T20:47:16.664Z,22.20
2019-05-16T20:50:07.719Z,21.83
2019-05-16T20:52:57.312Z,23.83
2019-05-16T20:55:46.922Z,24.60
2019-05-16T20:58:34.339Z,24.63
2019-05-16T21:01:22.267Z,23.47
2019-05-16T21:04:10.418Z,25.83
2019-05-16T21:07:05.712Z,23.70
2019-05-16T21:09:48.538Z,25.93
2019-05-16T21:12:37.248Z,27.23
2019-05-16T21:15:26.424Z,26.47
2019-05-16T21:18:16.639Z,25.07
2019-05-16T21:21:07.677Z,26.60
2019-05-16T21:23:56.299Z,27.63
2019-05-16T21:26:46.169Z,27.27
2019-05-16T21:29:36.784Z,28.60
2019-05-16T21:32:26.850Z,30.63
2019-05-16T21:35:14.125Z,30.13
2019-05-16T21:38:02.614Z,30.50
2019-05-16T21:40:50.751Z,30.60
2019-05-16T21:43:39.002Z,29.17
2019-05-16T21:46:27.239Z,30.17
2019-05-16T21:49:16.479Z,29.27
2019-05-16T21:52:04.863Z,31.60
2019-05-16T21:54:53.013Z,32.53
2019-05-16T21:57:41.414Z,29.03
2019-05-16T22:00:38.220Z,32.13
2019-05-16T22:03:26.952Z,32.37
2019-05-16T22:06:16.683Z,30.30
2019-05-16T22:09:06.798Z,31.87
2019-05-16T22:11:57.335Z,32.03
2019-05-16T22:14:50.755Z,33.13
2019-05-16T22:17:39.006Z,32.20
2019-05-16T22:20:27.272Z,32.47
2019-05-16T22:23:17.356Z,32.83
2019-05-16T22:26:07.661Z,34.30
2019-05-16T22:28:57.491Z,34.23
2019-05-16T22:31:47.143Z,34.00
2019-05-16T22:34:36.831Z,33.50
2019-05-16T22:37:26.572Z,35.27
2019-05-16T22:40:17.199Z,35.03
2019-05-16T22:43:09.785Z,33.43
2019-05-16T22:45:57.379Z,33.80
2019-05-16T22:48:46.817Z,32.30
2019-05-16T22:51:36.632Z,34.23
2019-05-16T22:54:26.247Z,36.17
2019-05-16T22:57:17.530Z,34.60
2019-05-16T23:00:07.596Z,33.07
2019-05-16T23:02:56.653Z,34.50
2019-05-16T23:05:44.499Z,35.63
2019-05-16T23:08:32.828Z,33.87
2019-05-16T23:11:21.187Z,33.80
2019-05-16T23:14:09.903Z,36.83
2019-05-16T23:16:58.339Z,34.43
2019-05-16T23:19:47.443Z,33.07
2019-05-16T23:22:36.720Z,36.37
2019-05-16T23:25:25.583Z,32.83
2019-05-16T23:28:13.392Z,34.60
2019-05-16T23:31:01.948Z,34.50
2019-05-16T23:33:51.136Z,35.13
2019-05-16T23:36:39.579Z,31.70
2019-05-16T23:39:28.291Z,36.67
2019-05-16T23:42:16.528Z,33.83
2019-05-16T23:45:08.328Z,36.47
2019-05-16T23:47:56.372Z,34.70
2019-05-16T23:50:43.702Z,38.67
2019-05-16T23:53:32.014Z,38.70
2019-05-16T23:56:20.583Z,34.70
2019-05-16T23:59:08.776Z,34.43
